Time;durP1;ratioP1;P1;durP2;ratioP2;P2;SDS_P1;SDS_P2;PMS_P1;PMS_P2;Temp;Humidity;BMP_temperature;BMP_pressure;BME280_temperature;BME280_humidity;BME280_pressure;Samples;Min_cycle;Max_cycle;Signal;HPM_P1;HPM_P2
2023/01/13 00:00:25;;;;;;;4.63;1.35;;;11.10;94.30;;;;;;5027870;28;20026;-65
2023/01/13 00:02:50;;;;;;;3.67;1.10;;;11.00;94.10;;;;;;5026017;28;20025;-68
2023/01/13 00:05:16;;;;;;;6.85;1.42;;;11.00;93.90;;;;;;5028089;28;20018;-67
2023/01/13 00:07:42;;;;;;;9.20;1.77;;;11.00;94.10;;;;;;5024707;28;20030;-67
2023/01/13 00:10:09;;;;;;;9.77;1.67;;;11.00;93.50;;;;;;5027886;28;20017;-67
2023/01/13 00:12:39;;;;;;;9.65;1.73;;;11.00;93.30;;;;;;5028295;28;20017;-67
2023/01/13 00:15:06;;;;;;;5.63;1.25;;;10.90;93.20;;;;;;5027286;28;20036;-67
2023/01/13 00:17:32;;;;;;;5.95;1.60;;;10.90;92.80;;;;;;5025936;28;20042;-67
2023/01/13 00:19:57;;;;;;;7.32;2.08;;;10.80;92.60;;;;;;5027562;28;20774;-67
2023/01/13 00:22:23;;;;;;;5.38;1.20;;;10.70;92.50;;;;;;5028451;28;20677;-67
2023/01/13 00:24:48;;;;;;;10.90;1.55;;;10.70;92.70;;;;;;5029611;28;20404;-66
2023/01/13 00:27:14;;;;;;;5.18;1.88;;;10.70;92.60;;;;;;5025859;28;20506;-66
2023/01/13 00:29:39;;;;;;;5.22;1.20;;;10.60;92.50;;;;;;5027291;28;20695;-65
2023/01/13 00:32:05;;;;;;;9.02;1.77;;;10.50;92.60;;;;;;5027954;28;20048;-65
2023/01/13 00:34:30;;;;;;;9.75;1.50;;;10.50;92.70;;;;;;5028544;28;20507;-64
2023/01/13 00:36:56;;;;;;;8.98;1.75;;;10.50;92.70;;;;;;5024951;28;20486;-67
2023/01/13 00:39:22;;;;;;;7.85;1.60;;;10.40;92.50;;;;;;5025244;28;20452;-67
2023/01/13 00:44:31;;;;;;;5.97;1.42;;;10.30;92.60;;;;;;5028670;28;20491;-67
2023/01/13 00:46:57;;;;;;;8.82;1.75;;;10.30;92.70;;;;;;5028294;28;20033;-66
2023/01/13 00:49:27;;;;;;;8.13;1.45;;;10.20;92.50;;;;;;5026093;28;20037;-65
2023/01/13 00:51:54;;;;;;;7.10;1.52;;;10.20;92.50;;;;;;5030242;28;20025;-67
2023/01/13 00:54:19;;;;;;;9.18;1.75;;;10.20;92.50;;;;;;5028115;28;20113;-66
2023/01/13 00:56:45;;;;;;;5.90;1.20;;;10.20;92.70;;;;;;5028492;28;20061;-65
2023/01/13 00:59:12;;;;;;;7.68;1.60;;;10.10;92.60;;;;;;5035291;28;20592;-65
2023/01/13 01:01:38;;;;;;;4.28;0.98;;;10.10;92.70;;;;;;5025656;28;20029;-66
2023/01/13 01:04:04;;;;;;;11.48;1.42;;;10.10;92.80;;;;;;5027563;28;20491;-66
2023/01/13 01:06:29;;;;;;;6.93;1.13;;;10.10;92.90;;;;;;5025556;28;20033;-66
2023/01/13 01:08:55;;;;;;;4.78;1.20;;;10.10;92.90;;;;;;5026371;28;20542;-66
2023/01/13 01:11:27;;;;;;;8.07;2.08;;;10.00;93.00;;;;;;5027260;28;20026;-66
2023/01/13 01:13:54;;;;;;;8.82;1.85;;;10.00;93.10;;;;;;5028458;28;20033;-67
2023/01/13 01:16:22;;;;;;;7.85;1.90;;;10.00;93.20;;;;;;5029753;28;20026;-65
2023/01/13 01:18:49;;;;;;;8.98;2.40;;;10.00;93.20;;;;;;5028187;28;20072;-66
2023/01/13 01:21:16;;;;;;;4.18;1.15;;;10.00;93.20;;;;;;5034681;28;20082;-67
2023/01/13 01:23:42;;;;;;;8.23;1.40;;;10.00;93.00;;;;;;5028142;28;20510;-64
2023/01/13 01:26:12;;;;;;;6.90;1.40;;;10.00;93.00;;;;;;5023975;28;20030;-65
2023/01/13 01:28:38;;;;;;;7.43;1.27;;;10.00;92.90;;;;;;5022816;28;20049;-64
2023/01/13 01:31:13;;;;;;;8.88;1.58;;;10.00;92.90;;;;;;5027712;28;20107;-64
2023/01/13 01:33:40;;;;;;;4.53;1.38;;;10.00;92.90;;;;;;5029847;28;20017;-66
2023/01/13 01:36:06;;;;;;;7.93;1.45;;;10.00;92.90;;;;;;5026946;28;20022;-66
2023/01/13 01:38:32;;;;;;;8.98;2.00;;;10.00;92.70;;;;;;5028949;28;20029;-65
2023/01/13 01:40:57;;;;;;;4.45;1.70;;;10.00;92.70;;;;;;5026542;28;20029;-67
2023/01/13 01:44:02;;;;;;;11.07;2.28;;;10.00;92.60;;;;;;5024677;28;20021;-64
2023/01/13 01:46:37;;;;;;;9.02;1.35;;;10.00;92.70;;;;;;5024087;28;20551;-65
2023/01/13 01:49:23;;;;;;;8.70;1.60;;;10.00;92.70;;;;;;5024589;28;20029;-64
2023/01/13 01:51:58;;;;;;;10.35;2.03;;;9.90;92.60;;;;;;5026016;28;20124;-66
2023/01/13 01:54:49;;;;;;;8.07;1.75;;;9.90;92.60;;;;;;5024349;28;20079;-65
2023/01/13 01:57:21;;;;;;;12.50;1.55;;;9.90;92.50;;;;;;5025632;28;20022;-65
2023/01/13 01:59:48;;;;;;;8.23;1.77;;;9.80;92.60;;;;;;5026624;28;20028;-65
2023/01/13 02:02:14;;;;;;;14.00;2.33;;;9.80;92.50;;;;;;5027211;28;20029;-66
2023/01/13 02:04:49;;;;;;;5.47;1.88;;;9.70;92.50;;;;;;5024054;28;20570;-64
2023/01/13 02:07:21;;;;;;;7.95;2.63;;;9.60;92.30;;;;;;5024986;28;20033;-65
2023/01/13 02:09:48;;;;;;;18.38;2.25;;;9.60;92.40;;;;;;5024251;28;20556;-66
2023/01/13 02:12:31;;;;;;;7.35;2.00;;;9.60;92.50;;;;;;5025335;28;20506;-66
2023/01/13 02:15:14;;;;;;;6.70;1.80;;;9.60;92.50;;;;;;5024442;28;20577;-65
2023/01/13 02:17:59;;;;;;;8.48;1.52;;;9.60;92.50;;;;;;5024892;28;20927;-66
2023/01/13 02:20:37;;;;;;;7.35;2.20;;;9.60;92.50;;;;;;5025827;28;20117;-66
2023/01/13 02:24:52;;;;;;;8.93;2.00;;;9.50;92.50;;;;;;5025362;28;20025;-65
2023/01/13 02:26:28;;;;;;;11.48;1.85;;;9.50;92.60;;;;;;5022794;28;20040;-67
2023/01/13 02:32:49;;;;;;;17.73;2.33;;;9.50;92.70;;;;;;5025615;28;20040;-66
2023/01/13 02:35:32;;;;;;;12.55;2.55;;;9.50;92.60;;;;;;5023783;28;20132;-67
2023/01/13 02:37:59;;;;;;;8.57;1.95;;;9.40;92.60;;;;;;5025366;28;20696;-67
2023/01/13 02:40:44;;;;;;;7.22;1.83;;;9.40;92.50;;;;;;5026016;28;20180;-66
2023/01/13 02:46:31;;;;;;;6.70;1.40;;;9.40;92.60;;;;;;5025997;28;20037;-66
2023/01/13 02:49:03;;;;;;;6.85;1.80;;;9.40;92.60;;;;;;5023006;28;20171;-67
2023/01/13 02:51:30;;;;;;;6.80;1.80;;;9.40;92.70;;;;;;5025377;28;20029;-65
2023/01/13 02:54:11;;;;;;;6.32;1.65;;;9.30;92.60;;;;;;5025652;28;20033;-67
2023/01/13 02:56:41;;;;;;;10.88;1.70;;;9.40;92.80;;;;;;5026193;28;20032;-67
2023/01/13 02:59:08;;;;;;;12.70;2.38;;;9.40;92.70;;;;;;5025199;28;20480;-67
2023/01/13 03:01:33;;;;;;;8.70;1.92;;;9.40;92.70;;;;;;5028185;28;20044;-66
2023/01/13 03:04:09;;;;;;;10.68;1.85;;;9.40;92.60;;;;;;5028061;28;20025;-66
2023/01/13 03:07:02;;;;;;;10.63;2.00;;;9.40;92.40;;;;;;5028650;28;20022;-65
2023/01/13 03:09:43;;;;;;;6.45;1.35;;;9.40;92.20;;;;;;5028229;28;20099;-66
2023/01/13 03:12:16;;;;;;;18.25;2.45;;;9.40;91.90;;;;;;5024176;28;20030;-66
2023/01/13 03:14:56;;;;;;;9.82;1.80;;;9.40;92.00;;;;;;5028157;28;20021;-66
2023/01/13 03:17:24;;;;;;;10.70;1.75;;;9.40;92.00;;;;;;5026284;28;20626;-65
2023/01/13 03:20:17;;;;;;;6.57;1.40;;;9.40;91.80;;;;;;5027728;28;20030;-67
2023/01/13 03:23:09;;;;;;;10.88;1.85;;;9.40;91.80;;;;;;5028627;28;20013;-67
2023/01/13 03:25:41;;;;;;;;;;;9.50;91.70;;;;;;5027960;28;20384;-66
2023/01/13 03:28:19;;;;;;;11.48;1.70;;;9.50;91.60;;;;;;5029051;28;19917;-67
2023/01/13 03:30:57;;;;;;;7.50;1.45;;;9.50;91.60;;;;;;5028303;28;20036;-67
2023/01/13 03:33:32;;;;;;;11.40;1.92;;;9.50;91.40;;;;;;5023884;28;20026;-66
2023/01/13 03:36:08;;;;;;;8.35;1.92;;;9.50;91.50;;;;;;5028505;28;20083;-66
2023/01/13 03:38:42;;;;;;;6.30;1.73;;;9.50;91.20;;;;;;5027947;28;20025;-66
2023/01/13 03:41:35;;;;;;;17.92;1.92;;;9.50;91.20;;;;;;5025559;28;20091;-67
2023/01/13 03:44:22;;;;;;;11.10;1.85;;;9.50;90.70;;;;;;5028326;28;20038;-68
2023/01/13 03:46:54;;;;;;;6.18;1.45;;;9.50;90.90;;;;;;5026122;28;20037;-67
2023/01/13 03:49:23;;;;;;;7.78;1.42;;;9.50;91.00;;;;;;5026555;28;20496;-68
2023/01/13 03:51:55;;;;;;;5.07;1.55;;;9.50;91.00;;;;;;5027905;28;20080;-66
2023/01/13 03:54:24;;;;;;;10.15;1.60;;;9.50;90.90;;;;;;5026745;28;20105;-66
2023/01/13 03:56:56;;;;;;;9.30;1.30;;;9.60;91.00;;;;;;5028525;28;20025;-67
2023/01/13 03:59:25;;;;;;;7.95;1.60;;;9.60;91.00;;;;;;5027045;28;20040;-66
2023/01/13 04:02:05;;;;;;;8.18;1.42;;;9.60;91.00;;;;;;5027467;28;20061;-66
2023/01/13 04:04:44;;;;;;;11.95;2.00;;;9.60;91.00;;;;;;5026840;28;20025;-66
2023/01/13 04:07:24;;;;;;;11.20;1.90;;;9.60;91.00;;;;;;5024856;28;20030;-66
2023/01/13 04:09:53;;;;;;;9.27;1.75;;;9.60;91.00;;;;;;5027280;28;20021;-66
2023/01/13 04:12:27;;;;;;;6.22;1.92;;;9.60;91.00;;;;;;5029081;28;20075;-66
2023/01/13 04:14:53;;;;;;;10.77;2.60;;;9.60;91.10;;;;;;5026112;28;20045;-67
2023/01/13 04:17:20;;;;;;;9.13;1.60;;;9.60;91.00;;;;;;5023967;28;20029;-66
2023/01/13 04:19:45;;;;;;;5.25;1.40;;;9.50;90.80;;;;;;5025978;28;20030;-66
2023/01/13 04:22:11;;;;;;;14.85;2.05;;;9.50;91.00;;;;;;5028473;28;20125;-66
2023/01/13 04:24:36;;;;;;;11.25;3.17;;;9.50;91.00;;;;;;5028782;28;20030;-68
2023/01/13 04:27:03;;;;;;;14.50;1.55;;;9.50;91.10;;;;;;5029312;28;20708;-66
2023/01/13 04:29:28;;;;;;;7.18;1.42;;;9.40;91.10;;;;;;5026374;28;20056;-67
2023/01/13 04:31:54;;;;;;;6.82;1.50;;;9.40;91.20;;;;;;5028309;28;20057;-67
2023/01/13 04:34:19;;;;;;;6.03;1.58;;;9.40;91.10;;;;;;5025290;28;20018;-67
2023/01/13 04:36:45;;;;;;;11.70;2.20;;;9.30;91.20;;;;;;5027422;28;20041;-68
2023/01/13 04:39:11;;;;;;;6.30;1.52;;;9.30;91.20;;;;;;5026223;28;20010;-67
2023/01/13 04:44:21;;;;;;;4.95;1.25;;;9.20;91.00;;;;;;5028497;28;20044;-66
2023/01/13 04:46:46;;;;;;;5.97;1.45;;;9.20;91.10;;;;;;5027403;28;20104;-66
2023/01/13 04:49:12;;;;;;;4.05;1.30;;;9.20;91.00;;;;;;5026919;28;20075;-66
2023/01/13 04:51:37;;;;;;;10.65;1.40;;;9.20;91.00;;;;;;5025931;28;20033;-66
2023/01/13 04:54:03;;;;;;;6.63;1.58;;;9.10;90.80;;;;;;5028135;28;20025;-65
2023/01/13 04:56:29;;;;;;;7.28;1.60;;;9.10;90.70;;;;;;5027000;28;20500;-66
2023/01/13 04:58:54;;;;;;;5.05;1.00;;;9.10;90.70;;;;;;5027058;28;20024;-66
2023/01/13 05:01:20;;;;;;;2.50;1.20;;;9.10;90.60;;;;;;5023431;28;20032;-65
2023/01/13 05:03:46;;;;;;;6.30;1.17;;;9.10;90.50;;;;;;5027876;28;20044;-65
2023/01/13 05:06:11;;;;;;;2.58;0.80;;;9.10;90.50;;;;;;5024389;28;20637;-65
2023/01/13 05:08:37;;;;;;;2.13;0.80;;;9.10;90.50;;;;;;5026152;28;20026;-66
2023/01/13 05:16:58;;;;;;;2.85;0.85;;;9.10;89.80;;;;;;5025031;28;20021;-66
2023/01/13 05:19:16;;;;;;;3.63;1.10;;;9.00;89.00;;;;;;5026882;28;20053;-67
2023/01/13 05:27:10;;;;;;;3.20;0.93;;;9.10;88.80;;;;;;5027871;28;20034;-66
2023/01/13 05:29:36;;;;;;;1.60;0.95;;;9.10;88.80;;;;;;5025921;28;20030;-67
2023/01/13 05:32:03;;;;;;;4.38;1.02;;;9.10;88.90;;;;;;5026043;28;20036;-66
2023/01/13 05:34:30;;;;;;;5.68;1.00;;;9.20;89.20;;;;;;5025494;28;20487;-67
2023/01/13 05:36:56;;;;;;;3.47;0.70;;;9.20;89.00;;;;;;5021163;28;20022;-66
2023/01/13 05:39:21;;;;;;;3.78;1.30;;;9.20;89.20;;;;;;5023068;28;20067;-67
2023/01/13 05:44:31;;;;;;;4.65;1.38;;;9.20;88.90;;;;;;5025590;28;20076;-65
2023/01/13 05:46:57;;;;;;;4.68;0.90;;;9.20;88.90;;;;;;5026575;28;20057;-65
2023/01/13 05:49:22;;;;;;;3.25;1.02;;;9.20;89.30;;;;;;5027479;28;20021;-64
2023/01/13 05:51:48;;;;;;;5.28;1.02;;;9.20;89.50;;;;;;5026955;28;20033;-66
2023/01/13 05:54:13;;;;;;;7.35;1.20;;;9.20;89.70;;;;;;5026735;28;20025;-66
2023/01/13 05:56:39;;;;;;;7.10;1.23;;;9.20;89.60;;;;;;5026046;28;20025;-67
2023/01/13 05:59:06;;;;;;;5.38;1.30;;;9.20;89.80;;;;;;5026458;28;20083;-65
2023/01/13 06:01:31;;;;;;;2.58;1.02;;;9.20;89.90;;;;;;5024903;28;20553;-65
2023/01/13 06:03:57;;;;;;;4.30;1.00;;;9.20;90.00;;;;;;5025475;28;20017;-65
2023/01/13 06:06:22;;;;;;;2.15;0.95;;;9.20;90.10;;;;;;5024331;28;20516;-65
2023/01/13 06:08:48;;;;;;;5.65;1.48;;;9.20;90.20;;;;;;5027224;28;20121;-66
2023/01/13 06:11:13;;;;;;;2.00;1.02;;;9.10;90.20;;;;;;5023443;28;20022;-64
2023/01/13 06:13:39;;;;;;;1.35;0.90;;;9.10;90.30;;;;;;5024786;28;20029;-65
2023/01/13 06:16:05;;;;;;;6.05;1.25;;;9.10;90.40;;;;;;5025568;28;20075;-65
2023/01/13 06:18:30;;;;;;;4.97;1.17;;;9.10;90.50;;;;;;5025185;28;20029;-66
2023/01/13 06:20:56;;;;;;;5.07;1.35;;;9.10;90.50;;;;;;5027266;28;20475;-67
2023/01/13 06:23:22;;;;;;;5.78;1.30;;;9.00;90.50;;;;;;5027581;28;20033;-65
2023/01/13 06:26:20;;;;;;;2.25;1.10;;;9.00;90.50;;;;;;5023812;28;20419;-65
2023/01/13 06:28:46;;;;;;;6.78;1.27;;;9.00;90.50;;;;;;5021886;28;20492;-65
2023/01/13 06:31:11;;;;;;;5.95;1.13;;;9.00;90.50;;;;;;5025740;28;20029;-65
2023/01/13 06:33:48;;;;;;;4.63;1.40;;;9.00;90.30;;;;;;5029690;28;20030;-66
2023/01/13 06:36:21;;;;;;;4.25;1.45;;;8.90;90.30;;;;;;5028868;28;20021;-66
2023/01/13 06:38:51;;;;;;;5.15;1.13;;;8.90;90.30;;;;;;5028722;28;20025;-66
2023/01/13 06:43:13;;;;;;;4.63;1.30;;;8.90;90.20;;;;;;5031742;28;20056;-65
2023/01/13 06:44:03;;;;;;;6.30;1.48;;;8.80;90.30;;;;;;5030200;28;20092;-67
2023/01/13 06:46:29;;;;;;;4.65;1.60;;;8.80;90.40;;;;;;5030308;28;20030;-67
2023/01/13 06:48:54;;;;;;;10.18;1.50;;;8.80;90.40;;;;;;5028416;28;20096;-66
2023/01/13 06:51:20;;;;;;;7.65;1.63;;;8.80;90.30;;;;;;5028508;28;20150;-66
2023/01/13 06:53:45;;;;;;;8.93;2.13;;;8.80;90.40;;;;;;5028042;28;20053;-67
2023/01/13 06:56:11;;;;;;;3.13;1.52;;;8.90;90.30;;;;;;5031450;28;20033;-66
2023/01/13 06:58:36;;;;;;;6.85;1.45;;;8.90;90.10;;;;;;5028094;28;20045;-66
2023/01/13 07:01:02;;;;;;;8.50;1.33;;;8.90;90.10;;;;;;5028495;28;20036;-66
2023/01/13 07:03:27;;;;;;;8.90;1.55;;;8.90;90.10;;;;;;5031513;28;20439;-66
2023/01/13 07:05:55;;;;;;;3.95;1.15;;;8.90;90.20;;;;;;5024643;28;20088;-67
2023/01/13 07:08:22;;;;;;;4.75;1.20;;;9.00;90.20;;;;;;5026842;28;20044;-68
2023/01/13 07:10:47;;;;;;;7.68;1.50;;;9.00;90.00;;;;;;5029925;28;20120;-67
2023/01/13 07:16:00;;;;;;;6.38;1.67;;;9.00;90.10;;;;;;5030256;28;20514;-66
2023/01/13 07:18:27;;;;;;;6.82;1.25;;;9.00;90.00;;;;;;5028091;28;20053;-67
2023/01/13 07:20:54;;;;;;;11.10;1.30;;;9.00;90.10;;;;;;5029436;28;20037;-67
2023/01/13 07:23:20;;;;;;;3.50;1.02;;;9.00;90.10;;;;;;5031308;28;20738;-66
2023/01/13 07:25:45;;;;;;;7.90;1.40;;;9.00;90.20;;;;;;5029734;28;20037;-66
2023/01/13 07:28:11;;;;;;;7.88;1.75;;;9.00;90.10;;;;;;5028467;28;20044;-67
2023/01/13 07:30:37;;;;;;;6.95;1.77;;;9.00;90.00;;;;;;5026264;28;20036;-66
2023/01/13 07:33:03;;;;;;;4.63;1.58;;;9.00;90.00;;;;;;5029982;28;20452;-66
2023/01/13 07:35:28;;;;;;;5.18;1.95;;;9.00;90.00;;;;;;5028955;28;20049;-67
2023/01/13 07:37:54;;;;;;;4.22;1.40;;;9.00;90.00;;;;;;5028730;28;20095;-66
2023/01/13 07:40:19;;;;;;;5.72;1.05;;;9.00;89.50;;;;;;5029566;28;20028;-65
2023/01/13 07:45:29;;;;;;;6.07;1.55;;;9.00;89.60;;;;;;5030794;28;20032;-66
2023/01/13 07:47:54;;;;;;;5.22;1.35;;;9.00;89.80;;;;;;5026368;28;20034;-66
2023/01/13 07:50:22;;;;;;;7.25;1.15;;;9.00;89.70;;;;;;5023747;28;20037;-67
2023/01/13 07:52:48;;;;;;;6.88;1.48;;;9.00;89.30;;;;;;5025498;28;20112;-66
2023/01/13 07:55:13;;;;;;;14.60;1.85;;;9.00;89.70;;;;;;5026708;28;20660;-67
2023/01/13 07:57:39;;;;;;;5.47;1.63;;;9.00;89.60;;;;;;5026681;28;20029;-67
2023/01/13 08:00:05;;;;;;;10.55;1.60;;;9.00;89.00;;;;;;5029766;28;20021;-66
2023/01/13 08:02:31;;;;;;;9.52;1.45;;;9.00;88.70;;;;;;5035328;28;20647;-67
2023/01/13 08:04:57;;;;;;;9.82;1.67;;;9.00;88.00;;;;;;5033517;28;20021;-66
2023/01/13 08:07:22;;;;;;;5.53;1.30;;;9.00;88.10;;;;;;5027214;28;20041;-66
2023/01/13 08:09:48;;;;;;;10.52;1.83;;;9.10;88.20;;;;;;5032246;28;20079;-67
2023/01/13 08:14:58;;;;;;;6.20;1.92;;;9.10;88.20;;;;;;5027150;28;20076;-66
2023/01/13 08:17:23;;;;;;;4.63;1.70;;;9.10;87.80;;;;;;5027894;28;20017;-67
2023/01/13 08:19:49;;;;;;;6.55;1.20;;;9.10;87.80;;;;;;5029180;28;20053;-65
2023/01/13 08:22:14;;;;;;;6.28;1.65;;;9.10;88.30;;;;;;5031070;28;20033;-66
2023/01/13 08:24:40;;;;;;;8.00;1.45;;;9.20;87.90;;;;;;5036749;28;20061;-66
2023/01/13 08:27:06;;;;;;;6.05;1.60;;;9.20;88.10;;;;;;5044760;28;20059;-66
2023/01/13 08:29:31;;;;;;;8.57;1.80;;;9.20;88.00;;;;;;5041862;28;20021;-66
2023/01/13 08:31:57;;;;;;;7.57;1.65;;;9.20;87.60;;;;;;5032333;28;20026;-65
2023/01/13 08:34:22;;;;;;;7.82;1.40;;;9.20;87.90;;;;;;5030315;28;20498;-66
2023/01/13 08:36:49;;;;;;;5.40;1.30;;;9.20;88.00;;;;;;5025936;28;20798;-65
2023/01/13 08:39:14;;;;;;;11.85;1.83;;;9.20;87.10;;;;;;5030379;28;20091;-66
2023/01/13 08:41:53;;;;;;;5.25;1.50;;;9.20;87.40;;;;;;5041859;28;20674;-66
2023/01/13 08:44:19;;;;;;;6.97;1.30;;;9.20;87.70;;;;;;5034243;28;20021;-68
2023/01/13 08:46:45;;;;;;;6.93;1.40;;;9.20;87.20;;;;;;5029533;28;20045;-66
2023/01/13 08:49:11;;;;;;;8.27;1.65;;;9.20;87.40;;;;;;5029692;28;20029;-67
2023/01/13 08:51:36;;;;;;;6.40;1.67;;;9.20;87.20;;;;;;5028840;28;20570;-65
2023/01/13 08:54:02;;;;;;;6.68;1.48;;;9.20;87.50;;;;;;5032212;28;20032;-66
2023/01/13 08:56:30;;;;;;;8.70;1.55;;;9.20;87.00;;;;;;5027434;28;20043;-65
2023/01/13 08:58:59;;;;;;;8.18;1.52;;;9.20;87.10;;;;;;5030746;28;20044;-66
2023/01/13 09:01:25;;;;;;;7.70;1.80;;;9.20;87.20;;;;;;5033004;28;20017;-66
2023/01/13 09:03:51;;;;;;;8.98;1.88;;;9.20;87.30;;;;;;5034635;28;20136;-66
2023/01/13 09:06:17;;;;;;;9.45;1.55;;;9.20;87.20;;;;;;5031837;28;20029;-67
2023/01/13 09:08:43;;;;;;;8.35;1.58;;;9.30;87.30;;;;;;5028386;28;20487;-67
2023/01/13 09:14:03;;;;;;;5.45;1.38;;;9.30;87.30;;;;;;5036085;28;20530;-65
2023/01/13 09:16:29;;;;;;;10.38;1.63;;;9.30;87.40;;;;;;5029719;28;20051;-66
2023/01/13 09:18:54;;;;;;;8.27;1.83;;;9.30;87.30;;;;;;5026747;28;20387;-66
2023/01/13 09:21:21;;;;;;;6.35;1.30;;;9.30;87.50;;;;;;5030431;28;20091;-66
2023/01/13 09:23:47;;;;;;;6.82;1.40;;;9.30;87.80;;;;;;5033851;28;20025;-67
2023/01/13 09:26:16;;;;;;;8.63;1.50;;;9.30;88.10;;;;;;5033126;28;20079;-67
2023/01/13 09:28:41;;;;;;;10.60;1.67;;;9.30;88.40;;;;;;5026411;28;20029;-66
2023/01/13 09:31:07;;;;;;;8.65;1.50;;;9.20;88.60;;;;;;5030312;28;20438;-67
2023/01/13 09:36:17;;;;;;;7.70;1.63;;;9.20;89.00;;;;;;5026078;28;20041;-67
2023/01/13 09:38:42;;;;;;;8.43;1.77;;;9.20;88.90;;;;;;5026093;28;20040;-67
2023/01/13 09:44:08;;;;;;;8.00;1.55;;;9.30;89.10;;;;;;5035331;28;20099;-67
2023/01/13 09:46:48;;;;;;;9.10;1.73;;;9.20;89.00;;;;;;5024211;28;20435;-67
2023/01/13 09:49:48;;;;;;;7.57;1.40;;;9.20;89.30;;;;;;5030225;28;20140;-67
2023/01/13 09:52:24;;;;;;;7.85;1.55;;;9.20;89.30;;;;;;5020320;28;20496;-66
2023/01/13 09:55:09;;;;;;;8.70;1.58;;;9.20;89.50;;;;;;5028638;28;20034;-68
2023/01/13 09:57:37;;;;;;;9.13;1.73;;;9.20;89.50;;;;;;5030823;28;20029;-67
2023/01/13 10:00:19;;;;;;;7.97;1.42;;;9.20;89.80;;;;;;5029365;28;20068;-69
2023/01/13 10:03:14;;;;;;;;;;;9.20;90.00;;;;;;5030480;28;20030;-67
2023/01/13 10:05:43;;;;;;;6.93;1.35;;;9.10;90.00;;;;;;5023481;28;19921;-67
2023/01/13 10:08:25;;;;;;;11.25;1.60;;;9.10;90.20;;;;;;5037741;28;20048;-67
2023/01/13 10:10:54;;;;;;;10.95;2.40;;;9.00;90.40;;;;;;5026752;28;20041;-67
2023/01/13 10:13:24;;;;;;;8.25;1.80;;;9.00;90.50;;;;;;5032857;28;20083;-66
2023/01/13 10:16:18;;;;;;;11.13;1.50;;;9.00;90.70;;;;;;5028084;28;20472;-67
2023/01/13 10:19:04;;;;;;;9.82;1.98;;;8.90;90.90;;;;;;5042497;28;20026;-68
2023/01/13 10:21:45;;;;;;;7.07;2.55;;;8.90;91.00;;;;;;5027263;28;20055;-67
2023/01/13 10:24:29;;;;;;;7.47;1.85;;;8.90;91.20;;;;;;5034619;28;20037;-68
2023/01/13 10:27:06;;;;;;;8.05;1.58;;;8.90;91.20;;;;;;5027137;28;20600;-66
2023/01/13 10:29:33;;;;;;;4.80;1.55;;;8.90;91.30;;;;;;5032607;28;20026;-68
2023/01/13 10:31:59;;;;;;;4.78;1.25;;;8.90;91.40;;;;;;5024588;28;20022;-67
2023/01/13 10:34:27;;;;;;;9.23;1.55;;;8.90;91.40;;;;;;5032769;28;20511;-67
2023/01/13 10:37:07;;;;;;;7.85;1.85;;;8.90;91.50;;;;;;5028504;28;20033;-67
2023/01/13 10:39:41;;;;;;;11.25;2.53;;;8.90;91.60;;;;;;5033873;28;20395;-67
2023/01/13 10:42:16;;;;;;;11.77;2.42;;;8.90;91.60;;;;;;5027635;28;20151;-67
2023/01/13 10:44:51;;;;;;;5.82;1.60;;;8.90;91.60;;;;;;5033746;28;20043;-67
2023/01/13 10:47:28;;;;;;;10.02;1.60;;;9.00;91.70;;;;;;5030151;28;20037;-68
2023/01/13 10:50:11;;;;;;;2.88;1.15;;;9.00;91.60;;;;;;5029122;28;20025;-66
2023/01/13 10:52:53;;;;;;;9.48;2.00;;;9.00;91.60;;;;;;5025872;28;20040;-66
2023/01/13 10:55:40;;;;;;;15.65;2.75;;;9.00;91.60;;;;;;5027176;28;20419;-68
2023/01/13 10:58:20;;;;;;;15.35;2.10;;;9.00;91.60;;;;;;5026312;28;20021;-67
2023/01/13 11:00:48;;;;;;;7.13;1.33;;;9.00;91.60;;;;;;5028132;28;20736;-67
2023/01/13 11:03:22;;;;;;;16.17;2.45;;;9.10;91.60;;;;;;5031650;28;20471;-67
2023/01/13 11:05:55;;;;;;;13.73;3.13;;;9.10;91.60;;;;;;5026282;28;20653;-65
2023/01/13 11:08:22;;;;;;;;;;;9.10;91.50;;;;;;5027558;28;20084;-66
2023/01/13 11:10:53;;;;;;;8.15;1.65;;;9.10;91.50;;;;;;5026398;28;19910;-66
2023/01/13 11:13:23;;;;;;;7.60;1.48;;;9.10;91.60;;;;;;5025951;28;20025;-67
2023/01/13 11:16:00;;;;;;;5.78;1.55;;;9.10;91.60;;;;;;5028750;28;20049;-66
2023/01/13 11:19:00;;;;;;;5.97;1.33;;;9.10;91.70;;;;;;5027787;28;20022;-66
2023/01/13 11:21:37;;;;;;;10.75;1.92;;;9.10;91.80;;;;;;5028658;28;20033;-68
2023/01/13 11:24:18;;;;;;;6.10;1.40;;;9.10;91.80;;;;;;5032624;28;20038;-67
2023/01/13 11:26:50;;;;;;;6.30;1.95;;;9.10;92.00;;;;;;5032846;28;20025;-68
2023/01/13 11:29:37;;;;;;;4.50;1.42;;;9.00;92.00;;;;;;5028588;28;20052;-66
2023/01/13 11:32:13;;;;;;;8.27;1.98;;;9.00;92.10;;;;;;5028456;28;20029;-66
2023/01/13 11:34:40;;;;;;;6.65;1.70;;;9.10;92.30;;;;;;5027133;28;20476;-67
2023/01/13 11:37:16;;;;;;;7.07;1.50;;;9.20;92.30;;;;;;5029139;28;20037;-67
2023/01/13 11:40:05;;;;;;;12.27;1.50;;;9.20;92.20;;;;;;5027361;28;20108;-66
2023/01/13 11:42:35;;;;;;;7.78;1.75;;;9.20;92.30;;;;;;5027554;28;20411;-67
2023/01/13 11:45:17;;;;;;;10.55;1.98;;;9.30;92.20;;;;;;5027452;28;20051;-68
2023/01/13 11:47:56;;;;;;;9.73;1.73;;;9.30;92.30;;;;;;5031795;28;20112;-66
2023/01/13 11:50:49;;;;;;;6.72;1.75;;;9.30;92.20;;;;;;5026421;28;20037;-66
2023/01/13 11:53:30;;;;;;;7.43;1.42;;;9.30;92.20;;;;;;5031285;28;20033;-67
2023/01/13 11:56:09;;;;;;;9.38;1.75;;;9.30;92.20;;;;;;5028233;28;20029;-68
2023/01/13 11:58:45;;;;;;;6.30;1.50;;;9.30;92.10;;;;;;5026538;28;20373;-68
2023/01/13 12:01:43;;;;;;;4.28;1.35;;;9.30;92.10;;;;;;5027123;28;20083;-67
2023/01/13 12:04:34;;;;;;;7.38;1.38;;;9.30;92.10;;;;;;5025753;28;20500;-67
2023/01/13 12:07:16;;;;;;;8.27;1.65;;;9.30;92.10;;;;;;5033292;28;20045;-67
2023/01/13 12:10:11;;;;;;;5.72;1.10;;;9.30;92.00;;;;;;5029395;28;20051;-67
2023/01/13 12:13:02;;;;;;;5.28;1.48;;;9.30;92.00;;;;;;5027055;28;20480;-67
2023/01/13 12:15:41;;;;;;;9.95;1.70;;;9.40;92.00;;;;;;5028012;28;20033;-68
2023/01/13 12:18:39;;;;;;;6.93;1.55;;;9.40;91.90;;;;;;5029681;28;20093;-67
2023/01/13 12:21:23;;;;;;;6.63;1.80;;;9.30;91.90;;;;;;5027593;28;20435;-67
2023/01/13 12:24:02;;;;;;;7.45;1.52;;;9.40;92.00;;;;;;5026440;28;20086;-67
2023/01/13 12:26:37;;;;;;;5.10;1.27;;;9.30;92.00;;;;;;5027548;28;20029;-66
2023/01/13 12:29:17;;;;;;;4.53;1.35;;;9.40;92.10;;;;;;5032570;28;20025;-68
2023/01/13 12:31:48;;;;;;;8.70;1.20;;;9.40;92.10;;;;;;5031700;28;20033;-67
2023/01/13 12:34:39;;;;;;;2.80;1.00;;;9.40;92.10;;;;;;5029634;28;20036;-67
2023/01/13 12:37:25;;;;;;;6.15;1.23;;;9.40;92.20;;;;;;5030888;28;20037;-65
2023/01/13 12:40:42;;;;;;;2.50;1.13;;;9.40;92.20;;;;;;5027611;28;20079;-67
2023/01/13 12:46:27;;;;;;;1.67;0.98;;;9.20;92.20;;;;;;5002865;28;20584;-68
2023/01/13 12:48:56;;;;;;;3.55;0.80;;;9.20;92.30;;;;;;5017451;28;20121;-66
2023/01/13 12:51:34;;;;;;;7.20;1.67;;;9.20;92.30;;;;;;5027249;28;20034;-67
2023/01/13 12:54:04;;;;;;;8.38;1.73;;;9.20;92.40;;;;;;5027247;28;20037;-67
2023/01/13 12:56:40;;;;;;;4.38;0.95;;;9.20;92.40;;;;;;5031360;28;20034;-67
2023/01/13 12:59:16;;;;;;;6.47;1.50;;;9.10;92.50;;;;;;5028898;28;20553;-69
2023/01/13 13:01:43;;;;;;;8.40;1.63;;;9.10;92.90;;;;;;5032145;28;20048;-68
2023/01/13 13:04:12;;;;;;;3.45;1.00;;;9.20;92.60;;;;;;5027062;28;20029;-68
2023/01/13 13:06:44;;;;;;;5.50;1.45;;;9.20;92.60;;;;;;5028123;28;20037;-67
2023/01/13 13:09:34;;;;;;;5.88;1.33;;;9.30;92.60;;;;;;5029468;28;20431;-67
2023/01/13 13:15:30;;;;;;;;;;;9.30;92.50;;;;;;5030117;28;20051;-66
2023/01/13 13:17:59;;;;;;;10.80;1.45;;;9.40;92.40;;;;;;5029182;28;20004;-67
2023/01/13 13:21:00;;;;;;;8.23;1.58;;;9.30;92.40;;;;;;5029912;28;20029;-66
2023/01/13 13:23:46;;;;;;;7.45;1.60;;;9.40;92.40;;;;;;5030677;28;20479;-69
2023/01/13 13:26:25;;;;;;;6.50;1.20;;;9.40;92.30;;;;;;5027113;28;20034;-68
2023/01/13 13:29:17;;;;;;;6.10;1.30;;;9.40;92.30;;;;;;5025666;28;20037;-67
2023/01/13 13:32:10;;;;;;;5.60;1.42;;;9.40;92.20;;;;;;5030496;28;20037;-67
2023/01/13 13:34:50;;;;;;;5.32;1.20;;;9.40;92.10;;;;;;5027452;28;20485;-66
2023/01/13 13:46:45;;;;;;;7.22;1.42;;;9.50;92.00;;;;;;5027038;28;20033;-67
2023/01/13 13:48:51;;;;;;;6.05;1.90;;;9.50;91.50;;;;;;5027719;28;20771;-68
2023/01/13 13:51:29;;;;;;;5.40;1.73;;;9.60;91.50;;;;;;5029077;28;20048;-67
2023/01/13 13:53:57;;;;;;;5.43;1.33;;;9.60;91.40;;;;;;5025426;28;20022;-69
2023/01/13 13:56:26;;;;;;;4.70;1.25;;;9.60;91.30;;;;;;5026922;28;20120;-68
2023/01/13 13:58:52;;;;;;;8.15;1.35;;;9.70;91.10;;;;;;5025263;28;20484;-66
2023/01/13 14:01:24;;;;;;;9.25;1.60;;;9.70;90.80;;;;;;5028027;28;20434;-67
2023/01/13 14:04:09;;;;;;;4.80;1.35;;;9.70;90.50;;;;;;5022932;28;20030;-67
2023/01/13 14:06:35;;;;;;;7.60;1.10;;;9.70;90.30;;;;;;5024789;28;20029;-66
2023/01/13 14:09:02;;;;;;;6.15;1.35;;;9.70;90.40;;;;;;5027791;28;20507;-68
2023/01/13 14:11:31;;;;;;;4.43;1.10;;;9.80;90.30;;;;;;5025847;28;20534;-66
2023/01/13 14:14:12;;;;;;;5.30;1.27;;;9.80;90.00;;;;;;5024720;28;20029;-68
2023/01/13 14:16:40;;;;;;;7.80;1.13;;;9.80;89.80;;;;;;5023904;28;20064;-67
2023/01/13 14:19:21;;;;;;;2.63;1.05;;;9.90;90.00;;;;;;5024659;28;20029;-66